createdAt,value
2017-06-29T00:01:02.650Z,0
2017-06-29T00:11:02.702Z,0
2017-06-29T00:21:02.664Z,0
2017-06-29T00:31:02.643Z,0
2017-06-29T00:41:02.647Z,0
2017-06-29T00:51:02.589Z,0
2017-06-29T01:01:03.051Z,0
2017-06-29T01:11:02.600Z,0
2017-06-29T01:21:02.728Z,0
2017-06-29T01:31:02.699Z,0
2017-06-29T01:41:02.657Z,0
2017-06-29T01:51:02.684Z,0
2017-06-29T02:01:02.719Z,0
2017-06-29T02:11:02.946Z,0
2017-06-29T02:21:02.630Z,0
2017-06-29T02:31:02.685Z,0
2017-06-29T02:41:02.598Z,0
2017-06-29T02:51:02.735Z,0
2017-06-29T03:01:02.688Z,0
2017-06-29T03:11:02.691Z,5
2017-06-29T03:21:02.636Z,15
2017-06-29T03:31:02.621Z,25
2017-06-29T03:41:02.643Z,25
2017-06-29T03:51:02.592Z,30
2017-06-29T04:01:02.821Z,40
2017-06-29T04:11:02.598Z,50
2017-06-29T04:21:02.573Z,65
2017-06-29T04:31:02.674Z,80
2017-06-29T04:41:02.595Z,85
2017-06-29T04:51:02.686Z,105
2017-06-29T05:01:02.651Z,115
2017-06-29T05:11:02.585Z,130
2017-06-29T05:21:02.694Z,130
2017-06-29T05:31:02.663Z,130
2017-06-29T05:41:02.774Z,165
2017-06-29T05:51:02.695Z,145
2017-06-29T06:01:02.614Z,160
2017-06-29T06:11:02.821Z,145
2017-06-29T06:21:02.654Z,260
2017-06-29T06:31:02.602Z,355
2017-06-29T06:41:02.975Z,215
2017-06-29T06:51:02.859Z,220
2017-06-29T07:01:02.845Z,165
2017-06-29T07:11:02.719Z,215
2017-06-29T07:21:02.634Z,195
2017-06-29T07:31:02.844Z,255
2017-06-29T07:41:02.653Z,220
2017-06-29T07:51:02.828Z,115
2017-06-29T08:01:02.748Z,170
2017-06-29T08:11:03.567Z,225
2017-06-29T08:21:02.803Z,145
2017-06-29T08:31:02.811Z,120
2017-06-29T08:41:02.951Z,90
2017-06-29T08:51:02.669Z,190
2017-06-29T09:01:02.633Z,265
2017-06-29T09:11:02.788Z,50
2017-06-29T09:21:02.639Z,130
2017-06-29T09:31:02.756Z,235
2017-06-29T09:41:02.713Z,275
2017-06-29T09:51:03.693Z,185
2017-06-29T10:01:04.251Z,110
2017-06-29T10:11:10.662Z,135
2017-06-29T10:21:02.974Z,165
2017-06-29T10:31:02.742Z,200
2017-06-29T10:41:02.676Z,225
2017-06-29T10:51:02.723Z,285
2017-06-29T11:01:02.679Z,205
2017-06-29T11:11:02.688Z,210
2017-06-29T11:21:02.650Z,280
2017-06-29T11:31:02.681Z,355
2017-06-29T11:41:02.685Z,255
2017-06-29T11:51:02.685Z,115
2017-06-29T12:01:02.703Z,110
2017-06-29T12:11:02.692Z,50
2017-06-29T12:21:02.690Z,150
2017-06-29T12:31:02.711Z,120
2017-06-29T12:41:02.800Z,80
2017-06-29T12:51:02.655Z,45
2017-06-29T13:01:02.674Z,65
2017-06-29T13:11:02.751Z,100
2017-06-29T13:21:02.698Z,145
2017-06-29T13:31:02.722Z,105
2017-06-29T13:41:02.759Z,110
2017-06-29T13:51:02.751Z,130
2017-06-29T14:01:02.711Z,180
2017-06-29T14:11:02.752Z,180
2017-06-29T14:21:03.370Z,145
2017-06-29T14:31:02.743Z,155
2017-06-29T14:41:02.773Z,165
2017-06-29T14:51:02.741Z,165
2017-06-29T15:01:02.707Z,165
2017-06-29T15:11:02.713Z,130
2017-06-29T15:21:02.732Z,150
2017-06-29T15:31:02.737Z,140
2017-06-29T15:41:02.719Z,140
2017-06-29T15:51:02.739Z,130
2017-06-29T16:01:03.355Z,120
2017-06-29T16:11:02.691Z,115
2017-06-29T16:21:02.746Z,105
2017-06-29T16:31:03.659Z,115
2017-06-29T16:41:02.738Z,110
2017-06-29T16:51:02.683Z,105
2017-06-29T17:01:02.734Z,95
2017-06-29T17:11:03.796Z,80
2017-06-29T17:21:02.739Z,70
2017-06-29T17:31:02.776Z,80
2017-06-29T17:41:02.747Z,65
2017-06-29T17:51:02.744Z,55
2017-06-29T18:01:02.847Z,50
2017-06-29T18:11:02.737Z,45
2017-06-29T18:21:02.749Z,45
2017-06-29T18:31:03.007Z,35
2017-06-29T18:41:02.797Z,30
2017-06-29T18:51:02.744Z,25
2017-06-29T19:01:02.871Z,15
2017-06-29T19:11:02.758Z,10
2017-06-29T19:21:02.924Z,5
2017-06-29T19:31:02.981Z,5
2017-06-29T19:41:02.851Z,0
2017-06-29T19:51:02.809Z,0
2017-06-29T20:01:02.975Z,0
2017-06-29T20:11:02.755Z,0
2017-06-29T20:21:02.754Z,0
2017-06-29T20:31:02.841Z,0
2017-06-29T20:41:02.885Z,0
2017-06-29T20:51:02.848Z,0
2017-06-29T21:01:02.787Z,0
2017-06-29T21:11:02.899Z,0
2017-06-29T21:21:02.792Z,0
2017-06-29T21:31:02.726Z,0
2017-06-29T21:41:02.865Z,0
2017-06-29T21:51:02.760Z,0
2017-06-29T22:01:02.876Z,0
2017-06-29T22:11:02.882Z,0
2017-06-29T22:21:02.719Z,0
2017-06-29T22:31:02.787Z,0
2017-06-29T22:41:02.794Z,0
2017-06-29T22:51:07.208Z,0
2017-06-29T23:01:02.715Z,0
2017-06-29T23:11:02.782Z,0
2017-06-29T23:21:02.777Z,0
2017-06-29T23:31:02.817Z,0
2017-06-29T23:41:02.838Z,0
2017-06-29T23:51:02.716Z,0
